createdAt,value
2018-11-11T00:03:52.002Z,2.40
2018-11-11T00:06:22.633Z,2.23
2018-11-11T00:08:51.419Z,3.40
2018-11-11T00:14:37.485Z,3.60
2018-11-11T00:23:42.537Z,3.27
2018-11-11T00:26:14.107Z,1.77
2018-11-11T00:46:42.670Z,2.23
2018-11-11T00:55:41.539Z,3.23
2018-11-11T00:58:34.649Z,3.97
2018-11-11T01:01:18.933Z,2.03
2018-11-11T01:06:46.633Z,2.80
2018-11-11T01:09:20.985Z,3.37
2018-11-11T01:11:52.128Z,2.50
2018-11-11T01:14:24.373Z,3.50
2018-11-11T01:16:54.176Z,1.93
2018-11-11T01:19:22.961Z,3.27
2018-11-11T01:21:55.103Z,1.37
2018-11-11T01:24:23.868Z,1.63
2018-11-11T01:26:52.430Z,2.53
2018-11-11T01:29:21.499Z,2.10
2018-11-11T01:32:01.738Z,3.07
2018-11-11T01:34:32.120Z,1.90
2018-11-11T01:37:02.204Z,1.50
2018-11-11T01:39:30.886Z,1.70
2018-11-11T01:42:01.354Z,3.13
2018-11-11T01:44:34.094Z,2.60
2018-11-11T01:47:12.405Z,1.33
2018-11-11T01:49:41.083Z,3.97
2018-11-11T01:52:11.722Z,2.33
2018-11-11T01:54:40.591Z,4.53
2018-11-11T01:57:09.360Z,2.13
2018-11-11T01:59:37.816Z,2.17
2018-11-11T02:02:07.592Z,2.00
2018-11-11T02:04:37.904Z,3.40
2018-11-11T02:07:09.309Z,2.70
2018-11-11T02:12:24.076Z,3.93
2018-11-11T02:14:52.804Z,4.17
2018-11-11T02:17:29.222Z,5.30
2018-11-11T02:20:02.957Z,2.97
2018-11-11T02:22:42.473Z,5.97
2018-11-11T02:25:15.864Z,4.10
2018-11-11T02:27:48.477Z,3.03
2018-11-11T02:30:19.783Z,4.53
2018-11-11T02:32:49.682Z,3.47
2018-11-11T02:35:18.854Z,4.20
2018-11-11T02:37:58.317Z,4.93
2018-11-11T02:40:53.041Z,4.13
2018-11-11T02:43:27.949Z,7.73
2018-11-11T02:46:00.832Z,4.93
2018-11-11T02:48:44.058Z,3.03
2018-11-11T02:51:12.993Z,3.03
2018-11-11T02:53:42.035Z,6.73
2018-11-11T02:56:11.740Z,4.43
2018-11-11T02:58:41.125Z,2.50
2018-11-11T03:01:09.712Z,3.97
2018-11-11T03:03:39.170Z,3.67
2018-11-11T03:06:07.894Z,2.30
2018-11-11T03:08:53.620Z,5.80
2018-11-11T03:11:30.698Z,3.13
2018-11-11T03:14:00.225Z,3.93
2018-11-11T03:16:29.228Z,3.03
2018-11-11T03:18:58.257Z,2.73
2018-11-11T03:21:28.675Z,2.10
2018-11-11T03:24:01.122Z,4.37
2018-11-11T03:26:33.704Z,4.97
2018-11-11T03:29:34.669Z,4.70
2018-11-11T03:32:08.352Z,4.93
2018-11-11T03:34:37.016Z,2.00
2018-11-11T03:37:06.119Z,3.47
2018-11-11T03:42:19.806Z,5.10
2018-11-11T03:49:39.779Z,2.63
2018-11-11T03:52:08.322Z,2.13
2018-11-11T03:54:38.125Z,1.80
2018-11-11T03:58:46.560Z,5.17
2018-11-11T04:01:20.457Z,2.43
2018-11-11T04:09:35.296Z,2.43
2018-11-11T04:14:56.835Z,4.07
2018-11-11T04:28:20.912Z,7.03
2018-11-11T04:30:50.958Z,2.90
2018-11-11T04:33:52.642Z,4.53
2018-11-11T04:36:22.906Z,5.27
2018-11-11T04:39:17.884Z,5.63
2018-11-11T04:42:00.198Z,3.10
2018-11-11T04:46:39.980Z,2.90
2018-11-11T04:49:15.046Z,3.47
2018-11-11T04:51:43.886Z,3.70
2018-11-11T05:00:02.879Z,3.33
2018-11-11T05:02:45.116Z,4.97
2018-11-11T05:08:15.050Z,4.30
2018-11-11T05:15:21.824Z,3.57
2018-11-11T05:18:06.626Z,5.23
2018-11-11T05:20:41.350Z,5.83
2018-11-11T05:25:54.766Z,2.50
2018-11-11T05:28:23.357Z,5.07
2018-11-11T05:30:52.039Z,4.57
2018-11-11T05:33:20.867Z,5.93
2018-11-11T05:35:49.892Z,4.53
2018-11-11T05:38:21.620Z,1.63
2018-11-11T05:40:58.639Z,5.13
2018-11-11T05:43:27.221Z,2.73
2018-11-11T05:46:10.386Z,5.03
2018-11-11T05:48:41.930Z,5.47
2018-11-11T05:51:12.915Z,5.67
2018-11-11T05:54:09.898Z,5.27
2018-11-11T05:56:38.981Z,6.17
2018-11-11T05:59:08.024Z,5.23
2018-11-11T06:01:37.049Z,4.57
2018-11-11T06:04:14.103Z,6.47
2018-11-11T06:06:46.975Z,7.23
2018-11-11T06:09:19.783Z,4.70
2018-11-11T06:11:48.282Z,7.23
2018-11-11T06:14:16.936Z,2.10
2018-11-11T06:16:45.431Z,4.93
2018-11-11T06:19:15.013Z,2.80
2018-11-11T06:21:43.537Z,5.33
2018-11-11T06:24:12.241Z,3.80
2018-11-11T06:26:40.825Z,3.93
2018-11-11T06:29:09.748Z,4.53
2018-11-11T06:31:38.427Z,4.50
2018-11-11T06:34:07.048Z,2.67
2018-11-11T06:36:35.500Z,4.60
2018-11-11T06:39:05.481Z,2.20
2018-11-11T06:41:34.170Z,3.17
2018-11-11T06:44:03.011Z,4.80
2018-11-11T06:46:31.534Z,3.97
2018-11-11T06:48:59.996Z,1.37
2018-11-11T06:51:28.559Z,5.03
2018-11-11T06:53:57.105Z,5.20
2018-11-11T06:56:25.908Z,3.03
2018-11-11T06:58:54.931Z,3.53
2018-11-11T07:01:23.577Z,3.77
2018-11-11T07:04:00.823Z,4.30
2018-11-11T07:06:30.435Z,3.03
2018-11-11T07:08:58.951Z,2.87
2018-11-11T07:11:28.048Z,4.80
2018-11-11T07:13:56.615Z,4.23
2018-11-11T07:16:25.081Z,2.90
2018-11-11T07:18:53.503Z,2.67
2018-11-11T07:21:22.371Z,3.40
2018-11-11T07:23:50.788Z,2.97
2018-11-11T07:26:18.995Z,3.33
2018-11-11T07:28:47.296Z,2.43
2018-11-11T07:31:15.528Z,2.63
2018-11-11T07:33:43.847Z,3.03
2018-11-11T07:36:12.235Z,7.53
2018-11-11T07:38:40.464Z,1.60
2018-11-11T07:41:09.108Z,3.17
2018-11-11T07:43:37.796Z,4.53
2018-11-11T07:46:06.100Z,3.43
2018-11-11T07:48:34.380Z,3.93
2018-11-11T07:51:02.701Z,3.60
2018-11-11T07:53:31.028Z,3.13
2018-11-11T07:55:59.310Z,3.83
2018-11-11T07:58:27.603Z,2.70
2018-11-11T08:00:55.851Z,3.40
2018-11-11T08:03:24.124Z,2.37
2018-11-11T08:05:52.422Z,1.83
2018-11-11T08:08:20.848Z,3.10
2018-11-11T08:11:00.407Z,6.30
2018-11-11T08:13:28.651Z,1.63
2018-11-11T08:15:56.888Z,1.70
2018-11-11T08:18:25.194Z,2.47
2018-11-11T08:20:53.450Z,2.80
2018-11-11T08:23:21.734Z,2.37
2018-11-11T08:25:50.016Z,3.63
2018-11-11T08:28:18.297Z,0.57
2018-11-11T08:30:46.576Z,2.70
2018-11-11T08:33:14.840Z,3.13
2018-11-11T08:35:43.130Z,1.23
2018-11-11T08:38:24.945Z,2.80
2018-11-11T08:40:53.246Z,1.80
2018-11-11T08:43:21.514Z,2.23
2018-11-11T08:45:49.853Z,1.90
2018-11-11T08:48:18.219Z,2.70
2018-11-11T08:50:46.430Z,2.17
2018-11-11T08:53:14.733Z,2.53
2018-11-11T08:55:43.041Z,3.67
2018-11-11T08:58:11.337Z,2.13
2018-11-11T09:00:39.585Z,2.73
2018-11-11T09:03:07.911Z,2.87
2018-11-11T09:05:36.193Z,1.57
2018-11-11T09:08:04.449Z,5.93
2018-11-11T09:10:32.745Z,2.60
2018-11-11T09:13:01.027Z,0.87
2018-11-11T09:15:29.325Z,3.47
2018-11-11T09:17:57.599Z,3.47
2018-11-11T09:20:25.909Z,8.33
2018-11-11T09:22:54.155Z,3.37
2018-11-11T09:25:22.440Z,4.70
2018-11-11T09:27:50.703Z,4.33
2018-11-11T09:30:19.025Z,2.77
2018-11-11T09:32:47.483Z,2.50
2018-11-11T09:35:15.843Z,2.70
2018-11-11T09:37:44.373Z,3.10
2018-11-11T09:40:13.259Z,3.30
2018-11-11T09:42:41.784Z,0.60
2018-11-11T09:45:11.792Z,3.13
2018-11-11T09:47:40.161Z,1.10
2018-11-11T09:50:10.149Z,3.03
2018-11-11T09:52:38.454Z,3.63
2018-11-11T09:55:07.414Z,3.07
2018-11-11T09:57:36.477Z,2.60
2018-11-11T10:00:06.914Z,4.63
2018-11-11T10:02:35.304Z,3.97
2018-11-11T10:05:06.808Z,3.33
2018-11-11T10:07:44.313Z,6.57
2018-11-11T10:10:18.513Z,2.00
2018-11-11T10:12:52.117Z,2.50
2018-11-11T10:15:39.163Z,3.07
2018-11-11T10:18:31.299Z,3.50
2018-11-11T10:21:06.372Z,2.87
2018-11-11T10:24:40.869Z,1.70
2018-11-11T10:27:19.140Z,3.93
2018-11-11T10:29:51.765Z,3.00
2018-11-11T10:32:35.692Z,4.33
2018-11-11T10:35:08.068Z,5.60
2018-11-11T10:37:41.783Z,2.37
2018-11-11T10:40:15.283Z,2.53
2018-11-11T10:42:48.326Z,5.57
2018-11-11T10:45:19.921Z,4.00
2018-11-11T10:47:52.281Z,4.60
2018-11-11T10:50:24.239Z,4.73
2018-11-11T10:52:52.512Z,2.90
2018-11-11T10:55:20.757Z,2.00
2018-11-11T10:57:49.119Z,4.53
2018-11-11T11:00:23.032Z,3.53
2018-11-11T11:02:55.916Z,6.23
2018-11-11T11:05:24.170Z,4.10
2018-11-11T11:07:52.592Z,5.97
2018-11-11T11:10:20.868Z,4.13
2018-11-11T11:12:49.157Z,3.47
2018-11-11T11:15:17.805Z,5.20
2018-11-11T11:17:46.160Z,5.33
2018-11-11T11:20:14.372Z,1.77
2018-11-11T11:22:42.690Z,5.37
2018-11-11T11:25:11.598Z,6.40
2018-11-11T11:27:40.909Z,4.80
2018-11-11T11:30:10.803Z,4.03
2018-11-11T11:32:39.258Z,4.63
2018-11-11T11:35:08.754Z,4.60
2018-11-11T11:37:37.251Z,4.33
2018-11-11T11:40:06.219Z,3.80
2018-11-11T11:42:34.517Z,5.97
2018-11-11T11:45:02.764Z,3.03
2018-11-11T11:47:31.097Z,6.53
2018-11-11T11:49:59.425Z,3.00
2018-11-11T11:52:27.660Z,5.30
2018-11-11T11:54:55.888Z,6.57
2018-11-11T11:57:24.148Z,5.80
2018-11-11T11:59:52.403Z,3.23
2018-11-11T12:02:20.855Z,4.27
2018-11-11T12:04:49.016Z,7.17
2018-11-11T12:07:17.294Z,4.23
2018-11-11T12:09:45.609Z,2.03
2018-11-11T12:12:13.999Z,4.17
2018-11-11T12:14:42.253Z,4.33
2018-11-11T12:17:10.563Z,4.40
2018-11-11T12:19:38.886Z,2.67
2018-11-11T12:22:07.397Z,3.10
2018-11-11T12:24:35.732Z,4.33
2018-11-11T12:27:04.066Z,5.53
2018-11-11T12:29:32.317Z,4.33
2018-11-11T12:32:00.598Z,3.10
2018-11-11T12:34:28.962Z,2.73
2018-11-11T12:36:57.271Z,3.60
2018-11-11T12:39:25.683Z,4.57
2018-11-11T12:41:54.010Z,3.40
2018-11-11T12:44:22.271Z,2.97
2018-11-11T12:46:50.946Z,2.07
2018-11-11T12:49:25.698Z,5.67
2018-11-11T12:51:54.029Z,4.40
2018-11-11T12:54:22.321Z,2.27
2018-11-11T12:56:50.611Z,6.70
2018-11-11T12:59:18.859Z,3.37
2018-11-11T13:01:47.082Z,3.73
2018-11-11T13:04:15.427Z,4.53
2018-11-11T13:06:43.737Z,4.10
2018-11-11T13:09:12.027Z,4.13
2018-11-11T13:11:40.380Z,2.80
2018-11-11T13:14:09.028Z,7.23
2018-11-11T13:16:37.354Z,4.00
2018-11-11T13:19:06.003Z,5.63
2018-11-11T13:21:34.338Z,2.70
2018-11-11T13:24:02.598Z,5.00
2018-11-11T13:26:30.860Z,7.60
2018-11-11T13:28:59.152Z,8.57
2018-11-11T13:31:27.452Z,1.73
2018-11-11T13:33:55.860Z,5.13
2018-11-11T13:36:24.169Z,3.33
2018-11-11T13:38:52.553Z,2.40
2018-11-11T13:41:20.809Z,5.63
2018-11-11T13:43:49.286Z,6.33
2018-11-11T13:46:17.837Z,4.17
2018-11-11T13:48:46.284Z,4.53
2018-11-11T13:51:14.522Z,5.47
2018-11-11T13:53:42.874Z,6.97
2018-11-11T13:56:11.163Z,7.70
2018-11-11T13:58:39.435Z,7.23
2018-11-11T14:01:08.296Z,6.90
2018-11-11T14:03:36.673Z,3.80
2018-11-11T14:06:05.160Z,6.03
2018-11-11T14:08:33.534Z,4.13
2018-11-11T14:11:01.804Z,4.87
2018-11-11T14:22:32.018Z,4.63
2018-11-11T14:25:19.548Z,6.10
2018-11-11T14:27:47.984Z,2.87
2018-11-11T14:30:18.244Z,3.67
2018-11-11T14:32:47.578Z,3.97
2018-11-11T14:35:16.020Z,4.43
2018-11-11T14:37:44.721Z,3.57
2018-11-11T14:40:16.122Z,5.13
2018-11-11T14:42:44.608Z,7.10
2018-11-11T14:45:14.317Z,2.63
2018-11-11T14:47:43.717Z,3.63
2018-11-11T14:50:13.243Z,4.83
2018-11-11T14:52:42.287Z,3.80
2018-11-11T14:55:14.488Z,4.00
2018-11-11T14:57:42.870Z,2.90
2018-11-11T15:00:15.516Z,6.50
2018-11-11T15:02:44.877Z,4.47
2018-11-11T15:05:14.199Z,4.90
2018-11-11T15:07:43.702Z,4.67
2018-11-11T15:10:13.250Z,3.63
2018-11-11T15:12:42.409Z,3.40
2018-11-11T15:15:14.693Z,8.20
2018-11-11T15:17:43.853Z,4.07
2018-11-11T15:20:13.560Z,5.43
2018-11-11T15:22:42.526Z,5.67
2018-11-11T15:25:13.300Z,6.50
2018-11-11T15:27:42.737Z,7.27
2018-11-11T15:30:13.587Z,5.13
2018-11-11T15:32:42.499Z,8.57
2018-11-11T15:35:10.588Z,6.83
2018-11-11T15:37:39.505Z,5.40
2018-11-11T15:40:43.512Z,5.80
2018-11-11T15:43:12.195Z,6.80
2018-11-11T15:45:40.720Z,7.23
2018-11-11T15:48:09.243Z,4.87
2018-11-11T15:50:38.108Z,5.03
2018-11-11T15:53:07.810Z,3.53
2018-11-11T15:55:37.412Z,4.67
2018-11-11T15:58:06.542Z,5.77
2018-11-11T16:00:39.901Z,2.97
2018-11-11T16:03:08.504Z,6.10
2018-11-11T16:06:00.727Z,4.93
2018-11-11T16:08:29.814Z,5.50
2018-11-11T16:13:57.602Z,7.27
2018-11-11T16:19:03.656Z,6.53
2018-11-11T16:21:40.564Z,4.20
2018-11-11T16:24:14.308Z,6.93
2018-11-11T16:26:43.879Z,3.00
2018-11-11T16:29:13.377Z,5.50
2018-11-11T16:31:56.888Z,9.00
2018-11-11T16:34:27.011Z,4.67
2018-11-11T16:36:56.448Z,5.77
2018-11-11T16:42:00.547Z,4.87
2018-11-11T16:44:30.547Z,6.63
2018-11-11T16:47:02.730Z,10.77
2018-11-11T16:49:32.372Z,12.03
2018-11-11T17:03:39.652Z,6.70
2018-11-11T17:06:25.499Z,5.07
2018-11-11T17:13:42.327Z,8.07
2018-11-11T17:19:34.877Z,16.93
2018-11-11T17:22:04.218Z,4.17
2018-11-11T17:24:41.565Z,4.47
2018-11-11T17:28:18.517Z,1.13
2018-11-11T17:30:55.190Z,2.03
2018-11-11T17:33:27.417Z,0.97
2018-11-11T17:36:11.730Z,2.17
2018-11-11T17:38:47.312Z,1.90
2018-11-11T17:41:18.457Z,4.37
2018-11-11T17:43:47.491Z,1.30
2018-11-11T17:46:16.635Z,1.97
2018-11-11T17:48:45.498Z,3.93
2018-11-11T17:51:14.552Z,1.57
2018-11-11T17:53:56.937Z,2.30
2018-11-11T17:56:27.876Z,1.83
2018-11-11T17:58:56.999Z,1.10
2018-11-11T18:01:25.476Z,2.20
2018-11-11T18:03:55.078Z,3.43
2018-11-11T18:06:23.953Z,2.90
2018-11-11T18:08:54.814Z,2.10
2018-11-11T18:11:23.433Z,1.17
2018-11-11T18:13:52.531Z,9.50
2018-11-11T18:16:21.283Z,4.37
2018-11-11T18:18:53.140Z,1.87
2018-11-11T18:21:26.090Z,2.90
2018-11-11T18:23:55.900Z,3.37
2018-11-11T18:26:24.707Z,2.00
2018-11-11T18:28:53.591Z,3.73
2018-11-11T18:31:22.074Z,2.17
2018-11-11T18:33:50.891Z,1.90
2018-11-11T18:36:19.850Z,5.77
2018-11-11T18:38:49.015Z,3.03
2018-11-11T18:41:19.278Z,3.60
2018-11-11T18:43:53.592Z,2.37
2018-11-11T18:46:22.126Z,1.17
2018-11-11T18:48:50.786Z,1.57
2018-11-11T18:51:24.987Z,2.93
2018-11-11T18:53:53.980Z,5.17
2018-11-11T18:56:22.818Z,4.87
2018-11-11T18:58:52.060Z,3.57
2018-11-11T19:01:20.689Z,12.67
2018-11-11T19:03:50.030Z,7.67
2018-11-11T19:06:19.957Z,5.97
2018-11-11T19:08:50.218Z,12.67
2018-11-11T19:11:19.470Z,7.83
2018-11-11T19:13:47.925Z,9.67
2018-11-11T19:16:18.488Z,4.27
2018-11-11T19:18:47.341Z,4.57
2018-11-11T19:27:01.645Z,4.23
2018-11-11T19:29:42.561Z,2.30
2018-11-11T19:32:15.154Z,4.30
2018-11-11T19:37:58.161Z,5.00
2018-11-11T19:40:28.588Z,4.20
2018-11-11T19:42:59.151Z,4.57
2018-11-11T19:45:29.191Z,4.13
2018-11-11T19:47:57.725Z,6.17
2018-11-11T19:50:29.782Z,4.60
2018-11-11T19:53:11.681Z,6.30
2018-11-11T19:55:44.096Z,6.57
2018-11-11T20:01:03.174Z,8.80
2018-11-11T20:03:35.640Z,21.30
2018-11-11T20:06:20.344Z,15.83
2018-11-11T20:08:53.300Z,10.73
2018-11-11T20:11:31.063Z,10.60
2018-11-11T20:32:54.972Z,10.70
2018-11-11T20:38:12.770Z,10.47
2018-11-11T20:40:58.289Z,11.67
2018-11-11T21:05:19.029Z,7.87
2018-11-11T21:07:48.649Z,8.47
2018-11-11T21:10:18.897Z,7.73
2018-11-11T21:12:50.562Z,6.60
2018-11-11T21:15:24.474Z,4.47
2018-11-11T21:18:31.839Z,6.50
2018-11-11T21:21:26.317Z,3.00
2018-11-11T21:24:07.501Z,4.93
2018-11-11T21:30:04.464Z,6.13
2018-11-11T21:33:00.326Z,4.17
2018-11-11T21:39:24.327Z,7.13
2018-11-11T21:41:54.657Z,4.23
2018-11-11T21:44:45.269Z,3.10
2018-11-11T21:47:30.209Z,2.60
2018-11-11T21:50:01.987Z,3.03
2018-11-11T21:52:31.178Z,6.13
2018-11-11T21:55:03.382Z,4.27
2018-11-11T21:57:33.135Z,3.33
2018-11-11T22:02:51.901Z,1.57
2018-11-11T22:05:20.718Z,3.43
2018-11-11T22:10:00.896Z,2.67
2018-11-11T22:12:35.487Z,1.90
2018-11-11T22:15:04.485Z,1.60
2018-11-11T22:17:35.078Z,1.30
2018-11-11T22:20:06.139Z,3.47
2018-11-11T22:22:34.704Z,1.50
2018-11-11T22:25:13.307Z,2.90
2018-11-11T22:27:42.394Z,1.50
2018-11-11T22:30:23.763Z,1.77
2018-11-11T22:33:00.380Z,1.53
2018-11-11T22:35:35.125Z,3.37
2018-11-11T22:38:11.066Z,1.30
2018-11-11T22:48:00.480Z,2.47
2018-11-11T22:59:35.867Z,1.43
2018-11-11T23:02:08.365Z,1.40
2018-11-11T23:04:36.943Z,22.73
2018-11-11T23:07:07.588Z,40.77
2018-11-11T23:09:53.234Z,39.00
2018-11-11T23:12:21.938Z,23.57
2018-11-11T23:23:52.225Z,4.10
2018-11-11T23:41:10.597Z,6.03
2018-11-11T23:44:04.140Z,4.27
2018-11-11T23:49:38.336Z,2.80
2018-11-11T23:59:34.308Z,2.43
